Time;durP1;ratioP1;P1;durP2;ratioP2;P2;SDS_P1;SDS_P2;PMS_P1;PMS_P2;Temp;Humidity;BMP_temperature;BMP_pressure;BME280_temperature;BME280_humidity;BME280_pressure;Samples;Min_cycle;Max_cycle;Signal;HPM_P1;HPM_P2
2022/07/09 00:01:10;;;;;;;5.50;2.60;;;;;20.00;97464.40;;;;110558;1251;41242;-65
2022/07/09 00:03:40;;;;;;;5.70;2.50;;;;;19.90;97463.60;;;;110506;1253;41932;-65
2022/07/09 00:06:09;;;;;;;5.30;2.10;;;;;19.90;97465.00;;;;110558;1253;42723;-66
2022/07/09 00:08:39;;;;;;;5.70;2.40;;;;;19.90;97469.00;;;;110542;1252;41188;-66
2022/07/09 00:11:09;;;;;;;6.50;2.70;;;;;19.90;97469.40;;;;110540;1253;41406;-67
2022/07/09 00:13:39;;;;;;;5.90;2.60;;;;;19.80;97473.20;;;;110691;1251;42182;-67
2022/07/09 00:16:10;;;;;;;5.10;2.40;;;;;19.72;97470.20;;;;110523;1253;41355;-65
2022/07/09 00:18:40;;;;;;;6.60;2.60;;;;;19.70;97471.00;;;;110538;1253;41136;-66
2022/07/09 00:21:10;;;;;;;6.30;2.80;;;;;19.70;97472.40;;;;110462;1255;42257;-66
2022/07/09 00:23:41;;;;;;;7.90;2.90;;;;;19.78;97473.20;;;;110545;1253;41137;-66
2022/07/09 00:26:10;;;;;;;5.80;2.90;;;;;19.80;97470.20;;;;110533;1253;41143;-66
2022/07/09 00:28:40;;;;;;;6.80;2.90;;;;;19.80;97468.80;;;;110498;1254;41279;-64
2022/07/09 00:31:10;;;;;;;8.00;3.20;;;;;19.90;97470.40;;;;110612;1251;42212;-66
2022/07/09 00:33:40;;;;;;;7.50;2.80;;;;;19.90;97465.60;;;;110675;1251;41947;-67
2022/07/09 00:36:10;;;;;;;8.80;3.00;;;;;19.90;97466.20;;;;110614;1253;41727;-67
2022/07/09 00:38:40;;;;;;;6.80;3.00;;;;;19.90;97467.00;;;;110387;1254;41259;-67
2022/07/09 00:41:10;;;;;;;6.50;3.00;;;;;19.90;97464.40;;;;110489;1252;41247;-66
2022/07/09 00:43:49;;;;;;;8.10;2.90;;;;;19.90;97466.40;;;;110515;1253;41192;-65
2022/07/09 00:46:20;;;;;;;6.50;2.90;;;;;19.90;97462.00;;;;110618;1253;41901;-65
2022/07/09 00:48:49;;;;;;;7.80;2.90;;;;;19.90;97463.80;;;;110543;1252;42326;-66
2022/07/09 00:51:20;;;;;;;8.00;3.00;;;;;19.90;97460.40;;;;110590;1251;41152;-65
2022/07/09 00:53:51;;;;;;;6.30;2.70;;;;;19.86;97460.20;;;;110542;1253;41169;-66
2022/07/09 00:56:21;;;;;;;7.40;3.10;;;;;19.80;97464.20;;;;110580;1253;41367;-67
2022/07/09 00:58:51;;;;;;;6.70;3.00;;;;;19.80;97462.60;;;;110571;1253;41720;-67
2022/07/09 01:01:22;;;;;;;6.70;2.70;;;;;19.80;97460.00;;;;110549;1252;41175;-67
2022/07/09 01:03:52;;;;;;;6.70;2.80;;;;;19.80;97463.20;;;;110525;1254;41622;-65
2022/07/09 01:06:23;;;;;;;7.90;3.20;;;;;19.80;97459.00;;;;110464;1253;41623;-67
2022/07/09 01:08:53;;;;;;;6.70;2.70;;;;;19.80;97458.40;;;;110550;1253;41192;-66
2022/07/09 01:11:24;;;;;;;;;;;;;19.72;97460.40;;;;110475;1253;41592;-66
2022/07/09 01:13:54;;;;;;;;;;;;;19.70;97461.80;;;;110600;1253;41735;-66
2022/07/09 01:16:32;;;;;;;6.20;2.50;;;;;19.70;97458.20;;;;110576;1253;41382;-66
2022/07/09 01:19:03;;;;;;;5.80;2.70;;;;;19.70;97460.00;;;;110589;1251;41150;-66
2022/07/09 01:21:33;;;;;;;6.60;2.60;;;;;19.60;97458.80;;;;110428;1255;41730;-65
2022/07/09 01:24:04;;;;;;;;;;;;;19.60;97459.20;;;;110558;1254;41639;-66
2022/07/09 01:26:35;;;;;;;7.50;2.70;;;;;19.60;97457.40;;;;110556;1254;41159;-65
2022/07/09 01:29:05;;;;;;;6.10;2.40;;;;;19.60;97458.00;;;;110536;1252;41738;-65
2022/07/09 01:31:36;;;;;;;;;;;;;19.52;97456.40;;;;110411;1254;41260;-66
2022/07/09 01:34:07;;;;;;;7.80;2.80;;;;;19.50;97453.20;;;;110558;1254;41652;-66
2022/07/09 01:36:38;;;;;;;5.50;2.40;;;;;19.50;97451.40;;;;110569;1253;41322;-66
2022/07/09 01:39:10;;;;;;;4.70;2.20;;;;;19.50;97446.20;;;;110544;1252;41170;-66
2022/07/09 01:41:41;;;;;;;5.60;2.40;;;;;19.50;97449.80;;;;110476;1255;42530;-65
2022/07/09 01:44:12;;;;;;;4.50;2.20;;;;;19.50;97452.00;;;;110499;1253;41645;-66
2022/07/09 01:46:42;;;;;;;5.00;2.20;;;;;19.50;97450.40;;;;110341;1255;41205;-66
2022/07/09 01:49:14;;;;;;;5.40;2.40;;;;;19.50;97448.60;;;;110332;1253;41957;-65
2022/07/09 01:51:44;;;;;;;6.30;2.50;;;;;19.48;97448.20;;;;110456;1253;42089;-66
2022/07/09 01:54:14;;;;;;;5.60;2.40;;;;;19.44;97450.60;;;;110627;1253;42966;-67
2022/07/09 01:56:45;;;;;;;5.30;2.20;;;;;19.40;97446.00;;;;110480;1254;41227;-67
2022/07/09 01:59:15;;;;;;;5.00;2.30;;;;;19.40;97452.80;;;;110398;1254;41902;-65
2022/07/09 02:01:45;;;;;;;5.10;2.10;;;;;19.46;97455.60;;;;110440;1254;41392;-65
2022/07/09 02:04:16;;;;;;;4.00;2.00;;;;;19.48;97452.60;;;;110531;1253;41641;-66
2022/07/09 02:06:47;;;;;;;5.30;2.20;;;;;19.50;97455.80;;;;110410;1255;41136;-65
2022/07/09 02:09:17;;;;;;;;;;;;;19.40;97457.40;;;;110436;1254;41359;-65
2022/07/09 02:11:49;;;;;;;3.00;1.90;;;;;19.40;97453.80;;;;110449;1253;41148;-65
2022/07/09 02:14:19;;;;;;;3.80;2.10;;;;;19.40;97451.40;;;;110441;1253;41271;-65
2022/07/09 02:16:49;;;;;;;5.00;2.10;;;;;19.40;97450.60;;;;110509;1253;41848;-64
2022/07/09 02:19:21;;;;;;;4.40;2.20;;;;;19.40;97448.40;;;;110547;1254;41132;-66
2022/07/09 02:21:51;;;;;;;5.40;2.50;;;;;19.34;97450.80;;;;110570;1252;42010;-67
2022/07/09 02:24:22;;;;;;;5.20;2.00;;;;;19.30;97444.60;;;;110539;1253;41145;-66
2022/07/09 02:26:52;;;;;;;4.70;2.30;;;;;19.30;97437.60;;;;110571;1254;41838;-66
2022/07/09 02:29:22;;;;;;;;;;;;;19.30;97441.80;;;;110600;1253;41192;-66
2022/07/09 02:31:55;;;;;;;3.30;1.90;;;;;19.30;97439.40;;;;110589;1253;41157;-65
2022/07/09 02:34:26;;;;;;;3.70;1.80;;;;;19.30;97433.00;;;;110613;1252;41289;-66
2022/07/09 02:36:58;;;;;;;5.00;1.90;;;;;19.32;97434.80;;;;110547;1253;41392;-65
2022/07/09 02:39:29;;;;;;;;;;;;;19.34;97430.00;;;;110550;1254;42813;-65
2022/07/09 02:41:59;;;;;;;4.00;1.90;;;;;19.30;97432.00;;;;110490;1253;41393;-66
2022/07/09 02:44:30;;;;;;;3.20;1.80;;;;;19.32;97433.60;;;;110471;1254;41267;-65
2022/07/09 02:47:01;;;;;;;3.20;1.80;;;;;19.34;97436.60;;;;110482;1254;42154;-65
2022/07/09 02:49:31;;;;;;;;;;;;;19.38;97438.20;;;;110428;1255;41379;-66
2022/07/09 02:52:03;;;;;;;4.20;2.00;;;;;19.30;97438.00;;;;110467;1256;42009;-66
2022/07/09 02:54:33;;;;;;;3.20;1.80;;;;;19.30;97434.60;;;;110373;1256;41161;-66
2022/07/09 02:57:03;;;;;;;;;;;;;19.30;97435.00;;;;110395;1256;41268;-65
2022/07/09 02:59:33;;;;;;;4.20;2.00;;;;;19.30;97437.00;;;;110366;1255;41167;-67
2022/07/09 03:02:04;;;;;;;3.70;1.90;;;;;19.20;97437.80;;;;110522;1253;41315;-64
2022/07/09 03:04:34;;;;;;;;;;;;;19.20;97441.00;;;;110448;1256;41901;-67
2022/07/09 03:07:04;;;;;;;3.40;1.90;;;;;19.20;97440.60;;;;110541;1253;41155;-65
2022/07/09 03:09:34;;;;;;;4.90;2.20;;;;;19.20;97441.80;;;;110477;1255;41285;-66
2022/07/09 03:12:04;;;;;;;5.30;2.20;;;;;19.20;97450.20;;;;110522;1253;42388;-67
2022/07/09 03:14:34;;;;;;;;;;;;;19.20;97450.20;;;;110549;1253;41148;-66
2022/07/09 03:17:07;;;;;;;4.60;2.10;;;;;19.16;97452.60;;;;110533;1253;41388;-65
2022/07/09 03:19:37;;;;;;;4.50;2.30;;;;;19.10;97452.20;;;;110456;1253;41209;-66
2022/07/09 03:22:08;;;;;;;4.80;2.10;;;;;19.10;97455.20;;;;110401;1256;41154;-66
2022/07/09 03:24:38;;;;;;;4.40;2.20;;;;;19.02;97457.40;;;;110545;1253;41144;-66
2022/07/09 03:27:08;;;;;;;;;;;;;19.00;97457.00;;;;110415;1255;41280;-66
2022/07/09 03:29:38;;;;;;;4.50;2.10;;;;;19.00;97461.60;;;;110498;1254;42437;-66
2022/07/09 03:32:09;;;;;;;3.30;1.80;;;;;18.90;97464.20;;;;110502;1253;41164;-66
2022/07/09 03:34:40;;;;;;;4.70;2.10;;;;;18.90;97466.00;;;;110569;1253;41718;-66
2022/07/09 03:37:10;;;;;;;;;;;;;18.90;97464.20;;;;110380;1256;41642;-66
2022/07/09 03:39:40;;;;;;;6.40;2.40;;;;;18.80;97468.20;;;;110432;1255;41390;-66
2022/07/09 03:42:11;;;;;;;5.30;2.30;;;;;18.80;97468.80;;;;110355;1256;41689;-66
2022/07/09 03:44:41;;;;;;;4.50;2.10;;;;;18.80;97469.40;;;;110514;1255;41184;-66
2022/07/09 03:47:12;;;;;;;3.90;2.10;;;;;18.80;97470.40;;;;110505;1254;41220;-66
2022/07/09 03:49:42;;;;;;;6.30;2.30;;;;;18.80;97472.00;;;;110551;1253;41154;-65
2022/07/09 03:52:13;;;;;;;5.90;2.30;;;;;18.84;97470.00;;;;110437;1255;41203;-65
2022/07/09 03:54:49;;;;;;;6.00;2.40;;;;;18.84;97471.40;;;;110447;1253;41162;-65
2022/07/09 03:57:19;;;;;;;5.20;2.20;;;;;18.80;97474.40;;;;110435;1255;42417;-68
2022/07/09 03:59:49;;;;;;;5.10;2.30;;;;;18.80;97472.40;;;;110498;1254;41157;-64
2022/07/09 04:02:19;;;;;;;5.30;2.40;;;;;18.80;97471.40;;;;110471;1253;41258;-66
2022/07/09 04:04:48;;;;;;;4.50;2.20;;;;;18.70;97475.00;;;;110500;1253;41642;-64
2022/07/09 04:07:18;;;;;;;3.90;2.20;;;;;18.70;97476.00;;;;110338;1256;41191;-65
2022/07/09 04:09:48;;;;;;;5.70;2.10;;;;;18.70;97477.60;;;;110355;1256;41150;-65
2022/07/09 04:12:18;;;;;;;5.10;2.50;;;;;18.70;97482.00;;;;110493;1253;42572;-65
2022/07/09 04:14:47;;;;;;;5.10;2.40;;;;;18.70;97482.00;;;;110412;1254;42134;-65
2022/07/09 04:17:18;;;;;;;5.40;2.60;;;;;18.70;97481.20;;;;110537;1253;41225;-66
2022/07/09 04:19:48;;;;;;;;;;;;;18.70;97486.80;;;;110479;1253;42484;-65
2022/07/09 04:22:17;;;;;;;5.80;2.40;;;;;18.72;97482.20;;;;110506;1253;41624;-65
2022/07/09 04:24:47;;;;;;;5.90;2.70;;;;;18.80;97484.20;;;;110396;1255;41153;-67
2022/07/09 04:27:17;;;;;;;8.40;2.80;;;;;18.80;97486.20;;;;110328;1254;41840;-65
2022/07/09 04:29:47;;;;;;;6.50;2.50;;;;;18.80;97484.40;;;;110488;1253;41265;-66
2022/07/09 04:32:18;;;;;;;6.70;2.70;;;;;18.80;97482.40;;;;110576;1253;40736;-66
2022/07/09 04:34:58;;;;;;;6.40;2.80;;;;;18.90;97481.60;;;;110463;1254;41906;-65
2022/07/09 04:37:28;;;;;;;6.30;2.70;;;;;18.90;97481.80;;;;110465;1256;42379;-66
2022/07/09 04:39:58;;;;;;;;;;;;;19.00;97479.00;;;;110492;1255;41273;-66
2022/07/09 04:42:28;;;;;;;6.90;3.00;;;;;19.00;97476.20;;;;110480;1253;41154;-66
2022/07/09 04:44:57;;;;;;;6.40;3.00;;;;;19.20;97475.60;;;;110442;1256;41178;-66
2022/07/09 04:47:27;;;;;;;8.60;3.20;;;;;19.38;97473.00;;;;110517;1253;41973;-65
2022/07/09 04:49:56;;;;;;;6.40;2.90;;;;;19.64;97472.80;;;;110337;1254;41497;-66
2022/07/09 04:52:27;;;;;;;6.40;3.10;;;;;20.00;97472.40;;;;110485;1254;41271;-66
2022/07/09 04:54:56;;;;;;;5.50;2.60;;;;;20.20;97478.00;;;;110475;1253;41302;-65
2022/07/09 04:57:26;;;;;;;5.80;2.50;;;;;20.20;97478.00;;;;110340;1256;41487;-66
2022/07/09 05:00:00;;;;;;;6.70;2.60;;;;;20.30;97478.80;;;;110487;1254;41320;-65
2022/07/09 05:02:30;;;;;;;5.60;2.40;;;;;20.40;97480.60;;;;110426;1254;41306;-65
2022/07/09 05:04:59;;;;;;;5.10;2.30;;;;;20.60;97465.80;;;;110322;1255;41377;-65
2022/07/09 05:07:31;;;;;;;6.40;2.90;;;;;21.00;97481.40;;;;110387;1255;41178;-65
2022/07/09 05:10:02;;;;;;;4.40;2.20;;;;;21.22;97481.80;;;;110302;1253;41264;-65
2022/07/09 05:12:32;;;;;;;6.80;2.90;;;;;21.40;97482.20;;;;110469;1253;41175;-65
2022/07/09 05:15:02;;;;;;;6.70;2.80;;;;;21.40;97485.00;;;;110373;1253;41577;-66
2022/07/09 05:17:36;;;;;;;6.00;2.70;;;;;21.40;97482.20;;;;110444;1255;41193;-66
2022/07/09 05:20:07;;;;;;;5.50;2.70;;;;;21.40;97484.60;;;;110451;1253;41837;-65
2022/07/09 05:22:37;;;;;;;5.10;2.60;;;;;21.40;97486.20;;;;110408;1255;41388;-66
2022/07/09 05:25:08;;;;;;;6.30;2.60;;;;;21.42;97489.60;;;;110459;1253;41603;-66
2022/07/09 05:27:44;;;;;;;6.90;2.80;;;;;21.40;97491.40;;;;110544;1253;41273;-65
2022/07/09 05:30:15;;;;;;;5.60;2.50;;;;;21.50;97489.00;;;;110472;1254;41263;-65
2022/07/09 05:32:47;;;;;;;6.10;2.60;;;;;21.60;97479.80;;;;110206;1256;42525;-66
2022/07/09 05:35:17;;;;;;;5.60;2.40;;;;;21.94;97481.80;;;;110449;1256;41443;-67
2022/07/09 05:37:47;;;;;;;5.40;2.40;;;;;22.30;97483.60;;;;110493;1255;41156;-66
2022/07/09 05:40:16;;;;;;;6.20;2.70;;;;;22.60;97482.60;;;;110412;1255;41702;-66
2022/07/09 05:42:47;;;;;;;7.60;2.90;;;;;22.76;97481.00;;;;110274;1253;41597;-65
2022/07/09 05:45:16;;;;;;;8.20;2.50;;;;;22.80;97478.00;;;;110488;1253;42192;-66
2022/07/09 05:47:46;;;;;;;10.00;2.80;;;;;22.88;97479.60;;;;110571;1253;41142;-67
2022/07/09 05:50:15;;;;;;;5.20;2.30;;;;;22.90;97473.40;;;;110462;1253;42097;-66
2022/07/09 05:52:46;;;;;;;4.30;2.20;;;;;23.00;97476.60;;;;110508;1255;41277;-65
2022/07/09 05:55:17;;;;;;;5.80;2.70;;;;;23.10;97477.20;;;;110478;1255;41187;-68
2022/07/09 05:57:46;;;;;;;6.30;2.30;;;;;23.32;97476.00;;;;110617;1253;41726;-65
2022/07/09 06:00:15;;;;;;;5.80;2.40;;;;;23.82;97477.40;;;;110554;1253;41946;-67
2022/07/09 06:02:45;;;;;;;6.80;2.60;;;;;24.58;97468.40;;;;110520;1253;41982;-66
2022/07/09 06:05:15;;;;;;;6.50;2.60;;;;;25.42;97465.40;;;;110401;1256;41143;-66
2022/07/09 06:07:45;;;;;;;4.60;2.10;;;;;26.34;97466.60;;;;110470;1253;41268;-66
2022/07/09 06:10:16;;;;;;;5.20;2.20;;;;;27.20;97465.60;;;;110468;1255;41931;-66
2022/07/09 06:12:45;;;;;;;5.40;2.20;;;;;28.10;97458.20;;;;110572;1252;41266;-66
2022/07/09 06:15:16;;;;;;;5.60;2.40;;;;;28.80;97452.40;;;;110546;1253;41617;-65
2022/07/09 06:17:46;;;;;;;4.80;2.00;;;;;29.40;97458.40;;;;110393;1254;41486;-67
2022/07/09 06:20:16;;;;;;;4.80;2.20;;;;;29.80;97451.40;;;;110490;1253;41161;-66
2022/07/09 06:22:46;;;;;;;5.00;2.00;;;;;30.20;97446.20;;;;110470;1254;41167;-66
2022/07/09 06:25:16;;;;;;;3.70;1.80;;;;;30.56;97445.60;;;;110260;1256;41146;-66
2022/07/09 06:27:48;;;;;;;3.90;1.90;;;;;31.00;97443.00;;;;110333;1255;41197;-66
2022/07/09 06:30:18;;;;;;;4.30;1.90;;;;;31.50;97440.80;;;;110528;1254;41735;-66
2022/07/09 06:32:47;;;;;;;5.00;2.20;;;;;31.90;97432.60;;;;110530;1253;41737;-66
2022/07/09 06:35:16;;;;;;;4.20;1.80;;;;;32.00;97436.40;;;;110559;1253;41971;-67
2022/07/09 06:37:46;;;;;;;5.20;1.90;;;;;32.52;97428.80;;;;110501;1254;42410;-67
2022/07/09 06:40:15;;;;;;;4.00;1.90;;;;;33.00;97428.00;;;;110544;1254;41620;-66
2022/07/09 06:42:45;;;;;;;3.10;1.70;;;;;33.60;97424.40;;;;110496;1254;41303;-66
2022/07/09 06:45:32;;;;;;;2.80;1.60;;;;;33.90;97420.00;;;;110460;1253;41382;-66
2022/07/09 06:48:02;;;;;;;3.00;1.60;;;;;34.50;97418.80;;;;110499;1253;41255;-66
2022/07/09 06:50:31;;;;;;;4.20;1.60;;;;;34.80;97415.20;;;;110444;1254;41255;-66
2022/07/09 06:53:00;;;;;;;3.00;1.70;;;;;35.20;97414.00;;;;110478;1255;42132;-66
2022/07/09 06:55:33;;;;;;;3.40;1.50;;;;;35.50;97412.60;;;;110448;1254;41254;-65
2022/07/09 06:58:03;;;;;;;2.70;1.50;;;;;36.04;97406.40;;;;110264;1254;41145;-66
2022/07/09 07:00:33;;;;;;;3.60;1.50;;;;;36.22;97401.40;;;;110558;1254;41595;-65
2022/07/09 07:03:02;;;;;;;;;;;;;36.40;97405.60;;;;110457;1256;41184;-67
2022/07/09 07:05:32;;;;;;;4.50;1.50;;;;;36.68;97406.20;;;;110532;1254;41947;-67
2022/07/09 07:08:02;;;;;;;4.10;1.60;;;;;36.30;97404.80;;;;110482;1253;41616;-66
2022/07/09 07:10:31;;;;;;;3.80;1.70;;;;;36.42;97401.00;;;;110535;1255;41269;-67
2022/07/09 07:13:00;;;;;;;2.50;1.50;;;;;36.04;97403.60;;;;110549;1254;41738;-67
2022/07/09 07:15:29;;;;;;;3.60;1.60;;;;;35.50;97412.00;;;;110283;1254;41987;-65
2022/07/09 07:17:58;;;;;;;3.00;1.50;;;;;34.10;97422.80;;;;110429;1256;41264;-65
2022/07/09 07:20:28;;;;;;;3.10;1.60;;;;;32.38;97430.60;;;;110457;1253;41140;-65
2022/07/09 07:22:57;;;;;;;3.60;1.60;;;;;30.74;97434.60;;;;110401;1256;41148;-67
2022/07/09 07:25:27;;;;;;;4.60;1.70;;;;;29.08;97440.00;;;;110524;1254;41299;-66
2022/07/09 07:27:56;;;;;;;3.40;1.70;;;;;29.00;97442.00;;;;110571;1253;41146;-65
2022/07/09 07:30:26;;;;;;;7.30;2.00;;;;;28.56;97445.40;;;;110240;1254;419339;-66
2022/07/09 07:32:55;;;;;;;2.70;1.50;;;;;28.70;97446.00;;;;110472;1254;41610;-66
2022/07/09 07:35:24;;;;;;;3.80;1.60;;;;;28.66;97444.00;;;;110374;1256;41153;-66
2022/07/09 07:37:53;;;;;;;3.60;1.70;;;;;28.60;97444.80;;;;110444;1254;41145;-66
2022/07/09 07:40:24;;;;;;;2.50;1.50;;;;;28.60;97446.20;;;;110486;1253;41175;-67
2022/07/09 07:42:53;;;;;;;3.80;1.80;;;;;28.62;97436.40;;;;110219;1256;41151;-66
2022/07/09 07:45:23;;;;;;;3.40;1.70;;;;;28.50;97444.20;;;;110497;1253;41257;-65
2022/07/09 07:47:54;;;;;;;2.50;1.60;;;;;28.60;97441.80;;;;110572;1253;41145;-66
2022/07/09 07:50:23;;;;;;;2.70;1.60;;;;;28.42;97442.20;;;;110471;1253;41156;-66
2022/07/09 07:52:53;;;;;;;2.60;1.50;;;;;28.34;97444.60;;;;110589;1253;41156;-66
2022/07/09 07:55:22;;;;;;;3.90;1.60;;;;;28.28;97443.20;;;;110494;1253;41171;-66
2022/07/09 07:57:52;;;;;;;4.10;1.70;;;;;28.40;97445.60;;;;110499;1253;41885;-66
2022/07/09 08:00:22;;;;;;;2.30;1.60;;;;;28.50;97438.60;;;;110386;1256;41142;-65
2022/07/09 08:02:51;;;;;;;3.80;1.80;;;;;28.68;97436.00;;;;110467;1256;41267;-67
2022/07/09 08:05:21;;;;;;;3.70;1.50;;;;;28.90;97442.40;;;;110457;1254;41205;-66
2022/07/09 08:07:50;;;;;;;4.10;1.60;;;;;29.00;97441.80;;;;110424;1254;41269;-67
2022/07/09 08:10:20;;;;;;;4.70;1.60;;;;;29.10;97441.20;;;;110371;1255;41273;-66
2022/07/09 08:12:50;;;;;;;3.80;1.50;;;;;29.28;97442.20;;;;110372;1255;41893;-66
2022/07/09 08:15:19;;;;;;;3.60;1.80;;;;;29.50;97439.80;;;;110376;1256;41162;-66
2022/07/09 08:17:49;;;;;;;7.60;1.90;;;;;29.60;97432.40;;;;110472;1254;40879;-67
2022/07/09 08:20:19;;;;;;;3.10;1.80;;;;;29.60;97434.00;;;;110533;1253;41146;-65
2022/07/09 08:22:49;;;;;;;3.60;1.70;;;;;29.70;97436.80;;;;110408;1254;43263;-67
2022/07/09 08:25:19;;;;;;;8.00;1.80;;;;;29.70;97437.80;;;;110392;1253;41997;-66
2022/07/09 08:27:49;;;;;;;4.40;1.60;;;;;29.70;97440.20;;;;110370;1255;41139;-66
2022/07/09 08:30:18;;;;;;;;;;;;;29.80;97433.80;;;;110501;1254;41916;-67
2022/07/09 08:32:48;;;;;;;2.40;1.50;;;;;30.00;97433.20;;;;110525;1253;41145;-66
2022/07/09 08:35:17;;;;;;;3.00;1.50;;;;;30.10;97432.40;;;;110491;1253;41276;-68
2022/07/09 08:37:47;;;;;;;2.40;1.50;;;;;30.20;97431.00;;;;110545;1253;41937;-67
2022/07/09 08:40:16;;;;;;;3.60;1.70;;;;;30.20;97434.40;;;;110518;1254;41134;-67
2022/07/09 08:42:49;;;;;;;2.90;1.50;;;;;30.30;97432.60;;;;110359;1255;41735;-68
2022/07/09 08:45:26;;;;;;;3.20;1.60;;;;;30.46;97429.80;;;;110427;1255;41200;-67
2022/07/09 08:47:57;;;;;;;3.90;1.50;;;;;30.50;97430.80;;;;110399;1256;41164;-65
2022/07/09 08:50:35;;;;;;;4.10;1.70;;;;;30.60;97432.40;;;;110494;1254;41151;-68
2022/07/09 08:53:05;;;;;;;4.90;1.60;;;;;30.74;97433.00;;;;110556;1255;41200;-67
2022/07/09 08:55:36;;;;;;;3.40;1.60;;;;;30.90;97430.60;;;;110570;1255;41959;-67
2022/07/09 08:58:04;;;;;;;3.10;1.50;;;;;31.00;97427.80;;;;110463;1256;41165;-68
2022/07/09 09:00:33;;;;;;;3.60;1.50;;;;;31.20;97431.00;;;;110685;1253;41143;-66
2022/07/09 09:03:02;;;;;;;3.50;1.70;;;;;31.48;97419.00;;;;110743;1253;41161;-67
2022/07/09 09:05:31;;;;;;;2.80;1.60;;;;;31.90;97421.80;;;;110767;1253;41161;-66
2022/07/09 09:08:17;;;;;;;2.80;1.40;;;;;31.80;97417.60;;;;110516;1253;41278;-67
2022/07/09 09:10:46;;;;;;;2.80;1.50;;;;;31.80;97424.00;;;;110554;1253;41477;-66
2022/07/09 09:13:16;;;;;;;3.50;1.40;;;;;32.04;97420.40;;;;110507;1253;41168;-67
2022/07/09 09:15:46;;;;;;;3.80;1.60;;;;;32.28;97415.80;;;;110399;1254;41718;-67
2022/07/09 09:18:15;;;;;;;2.50;1.50;;;;;32.46;97415.60;;;;110513;1253;41167;-67
2022/07/09 09:20:45;;;;;;;2.70;1.50;;;;;32.66;97413.20;;;;110494;1254;42241;-67
2022/07/09 09:23:18;;;;;;;5.20;1.60;;;;;33.06;97413.20;;;;110420;1256;41156;-67
2022/07/09 09:25:47;;;;;;;3.50;1.70;;;;;33.26;97412.60;;;;110441;1256;41197;-67
2022/07/09 09:28:17;;;;;;;4.10;1.40;;;;;33.60;97405.80;;;;110572;1253;41215;-67
2022/07/09 09:30:46;;;;;;;3.60;1.50;;;;;33.90;97408.60;;;;110528;1253;41139;-66
2022/07/09 09:33:18;;;;;;;3.30;1.60;;;;;34.38;97401.40;;;;110600;1253;41618;-67
2022/07/09 09:35:48;;;;;;;2.50;1.50;;;;;34.80;97403.60;;;;110567;1253;41142;-66
2022/07/09 09:38:29;;;;;;;3.70;1.70;;;;;35.36;97403.00;;;;110664;1253;41295;-66
2022/07/09 09:40:58;;;;;;;2.90;1.60;;;;;35.42;97398.40;;;;110673;1253;41140;-67
2022/07/09 09:43:30;;;;;;;3.20;1.50;;;;;35.70;97397.20;;;;110725;1253;41160;-67
2022/07/09 09:46:02;;;;;;;2.90;1.60;;;;;36.02;97387.40;;;;110609;1253;41193;-67
2022/07/09 09:48:31;;;;;;;1.40;1.20;;;;;36.30;97387.40;;;;110634;1253;42170;-67
2022/07/09 09:51:01;;;;;;;1.90;1.20;;;;;36.80;97385.80;;;;110374;1254;41165;-67
2022/07/09 09:53:30;;;;;;;;;;;;;37.44;97383.80;;;;110519;1256;42519;-67
2022/07/09 09:56:04;;;;;;;3.20;1.50;;;;;37.30;97374.00;;;;110522;1254;41155;-66
2022/07/09 09:58:34;;;;;;;2.50;1.40;;;;;37.36;97367.00;;;;110547;1253;41218;-67
2022/07/09 10:01:05;;;;;;;3.10;1.50;;;;;37.14;97371.80;;;;110641;1253;41902;-67
2022/07/09 10:03:35;;;;;;;2.50;1.40;;;;;36.62;97367.40;;;;110532;1253;41343;-66
2022/07/09 10:06:08;;;;;;;4.50;1.50;;;;;35.82;97363.80;;;;110482;1254;41829;-68
2022/07/09 10:08:38;;;;;;;7.00;1.70;;;;;35.46;97367.60;;;;110663;1253;41691;-68
2022/07/09 10:11:08;;;;;;;1.80;1.30;;;;;35.00;97369.80;;;;110599;1253;41837;-67
2022/07/09 10:13:56;;;;;;;3.30;1.50;;;;;34.82;97364.20;;;;110570;1251;41501;-68
2022/07/09 10:16:37;;;;;;;3.70;1.60;;;;;34.60;97360.80;;;;110467;1253;41624;-68
2022/07/09 10:19:07;;;;;;;3.00;1.60;;;;;34.80;97363.80;;;;110540;1252;41261;-66
2022/07/09 10:21:41;;;;;;;3.20;1.70;;;;;34.90;97362.20;;;;110518;1254;41615;-67
2022/07/09 10:24:11;;;;;;;4.40;1.50;;;;;35.32;97358.20;;;;110501;1254;41176;-67
2022/07/09 10:26:42;;;;;;;3.50;1.60;;;;;35.38;97355.60;;;;110547;1254;41162;-67
2022/07/09 10:29:24;;;;;;;3.40;1.70;;;;;35.40;97356.20;;;;110510;1253;41160;-67
2022/07/09 10:31:55;;;;;;;3.10;1.50;;;;;35.40;97355.00;;;;110555;1253;41393;-67
2022/07/09 10:34:32;;;;;;;3.90;1.80;;;;;35.40;97345.20;;;;110511;1253;41199;-67
2022/07/09 10:37:03;;;;;;;2.70;1.50;;;;;35.30;97345.60;;;;110566;1251;41159;-67
2022/07/09 10:39:32;;;;;;;3.60;1.60;;;;;35.20;97335.20;;;;110548;1252;41158;-68
2022/07/09 10:42:04;;;;;;;3.40;1.50;;;;;34.94;97346.80;;;;110715;1253;41262;-66
2022/07/09 10:44:39;;;;;;;3.80;1.60;;;;;34.50;97349.40;;;;110639;1253;41267;-67
2022/07/09 10:47:09;;;;;;;3.10;1.60;;;;;34.10;97348.20;;;;110719;1253;41266;-67
2022/07/09 10:49:38;;;;;;;2.40;1.50;;;;;34.00;97348.20;;;;110710;1253;41153;-67
2022/07/09 10:52:08;;;;;;;2.90;1.50;;;;;34.04;97343.00;;;;110599;1255;41406;-67
2022/07/09 10:54:48;;;;;;;2.60;1.50;;;;;34.20;97347.00;;;;110634;1253;41152;-67
2022/07/09 10:57:19;;;;;;;2.20;1.40;;;;;34.00;97339.60;;;;110570;1254;42117;-67
2022/07/09 10:59:48;;;;;;;6.50;1.70;;;;;34.14;97336.60;;;;110601;1253;41168;-68
2022/07/09 11:02:22;;;;;;;3.20;1.60;;;;;34.78;97336.40;;;;110684;1253;41952;-67
2022/07/09 11:04:53;;;;;;;4.60;1.70;;;;;34.28;97343.00;;;;110589;1253;41149;-67
2022/07/09 11:07:27;;;;;;;2.50;1.40;;;;;33.90;97334.60;;;;110504;1253;41145;-67
2022/07/09 11:09:58;;;;;;;2.70;1.50;;;;;34.46;97328.80;;;;110688;1254;41309;-66
2022/07/09 11:12:30;;;;;;;3.20;1.50;;;;;35.22;97328.60;;;;110501;1253;41310;-67
2022/07/09 11:15:03;;;;;;;2.70;1.50;;;;;36.00;97322.80;;;;110605;1254;41157;-68
2022/07/09 11:17:34;;;;;;;1.70;1.30;;;;;36.34;97317.40;;;;110626;1253;41214;-68
2022/07/09 11:20:05;;;;;;;5.80;1.70;;;;;36.58;97319.00;;;;110389;1254;41455;-67
2022/07/09 11:22:36;;;;;;;1.60;1.30;;;;;36.92;97313.00;;;;110597;1252;41904;-66
2022/07/09 11:25:07;;;;;;;2.10;1.40;;;;;37.24;97316.80;;;;110487;1254;41516;-66
2022/07/09 11:27:42;;;;;;;2.40;1.30;;;;;37.54;97307.40;;;;110497;1254;41425;-67
2022/07/09 11:30:15;;;;;;;2.90;1.30;;;;;38.14;97310.40;;;;110552;1254;41935;-67
2022/07/09 11:32:45;;;;;;;2.20;1.40;;;;;38.20;97310.20;;;;110462;1254;41554;-67
2022/07/09 11:35:29;;;;;;;2.50;1.40;;;;;38.76;97307.40;;;;110750;1253;41182;-68
2022/07/09 11:38:00;;;;;;;2.60;1.30;;;;;39.48;97302.20;;;;110602;1253;41211;-67
2022/07/09 11:40:30;;;;;;;1.80;1.40;;;;;39.64;97296.60;;;;110742;1252;41623;-67
2022/07/09 11:43:00;;;;;;;3.40;1.60;;;;;39.34;97299.00;;;;110604;1254;41159;-67
2022/07/09 11:45:29;;;;;;;3.00;1.50;;;;;38.30;97293.80;;;;110698;1254;41146;-68
2022/07/09 11:48:09;;;;;;;4.00;1.60;;;;;37.40;97300.40;;;;110629;1254;41149;-67
2022/07/09 11:50:43;;;;;;;2.60;1.50;;;;;37.48;97300.80;;;;110865;1253;40907;-67
2022/07/09 11:53:21;;;;;;;2.70;1.40;;;;;37.80;97285.00;;;;110743;1253;41273;-67
2022/07/09 11:56:06;;;;;;;3.70;1.50;;;;;37.74;97291.00;;;;110748;1253;41147;-68
2022/07/09 11:58:35;;;;;;;2.80;1.60;;;;;38.32;97288.60;;;;110739;1253;41613;-67
2022/07/09 12:01:10;;;;;;;2.90;1.50;;;;;38.12;97282.80;;;;110780;1254;41156;-67
2022/07/09 12:03:47;;;;;;;2.60;1.30;;;;;38.64;97286.60;;;;110516;1253;41595;-68
2022/07/09 12:06:16;;;;;;;2.50;1.30;;;;;38.44;97286.60;;;;110627;1253;42393;-67
2022/07/09 12:08:46;;;;;;;1.80;1.20;;;;;38.44;97282.40;;;;110593;1253;41274;-67
2022/07/09 12:11:15;;;;;;;2.90;1.20;;;;;38.46;97277.40;;;;110443;1254;41540;-67
2022/07/09 12:13:44;;;;;;;3.80;1.60;;;;;38.38;97274.40;;;;110475;1254;41162;-68
2022/07/09 12:16:13;;;;;;;2.70;1.50;;;;;37.72;97278.00;;;;110503;1253;42384;-68
2022/07/09 12:18:43;;;;;;;3.10;1.50;;;;;36.88;97271.80;;;;110595;1252;41155;-67
2022/07/09 12:21:12;;;;;;;3.10;1.50;;;;;36.10;97268.20;;;;110482;1255;41173;-68
2022/07/09 12:23:41;;;;;;;3.00;1.60;;;;;35.24;97271.40;;;;110531;1254;40755;-67
2022/07/09 12:26:10;;;;;;;2.00;1.40;;;;;34.70;97262.60;;;;110539;1250;41133;-67
2022/07/09 12:28:40;;;;;;;;;;;;;34.00;97256.20;;;;110433;1255;41172;-67
2022/07/09 12:31:09;;;;;;;4.10;1.50;;;;;33.62;97258.20;;;;110483;1252;41613;-67